YBCS Airport Information

Runway Information
Runway 12 Length 3035 ft width 60 ft
Elevation 9 ft Threshold 0 ft Heading 126
Runway 30 Length 3035 ft Width 60 ft
Elevation 6 ft Threshold 0 ft Heading 306
Runway 15 Length 10489 ft width 148 ft
Elevation 9 ft Threshold 0 ft Heading 156
Runway 33 Length 10489 ft Width 148 ft
Elevation 7 ft Threshold 0 ft Heading 336
Airport Frequencies
Type A/D Name APP/DEP Frequency 118.4 MHZ
Type ATIS Name ATIS Frequency 113 MHZ
Type CLD Name CLNC DEL Frequency 121.7 MHZ
Type GND Name GND Frequency 121.7 MHZ
Type TWR Name TWR Frequency 124.9 MHZ
Airport Navaids
Type VOR-DME Name Cairns Frequency 113000 KHZ
Type NDB Name Cairns Frequency 364 KHZ
Airport Weather Information & NOTAM
ADDS - METARS form results

(1123 UTC 21 May 2019)
Data provider http://aviationweather.gov/metar/data/
 
METAR text: YBCS 211103Z AUTO 17013KT 9999 -SHRA SCT021 BKN026 OVC033 22/20 Q1018 INTER 1103/1403 4000 SHRA BKN018
Conditions at: YBCS (CAIRNS AIRPORT , AU) observed 1103 UTC 21 May 2019
Temperature: 22.0°C (72°F)
Dewpoint: 20.0°C (68°F) [RH = 88%]
Pressure (altimeter): 30.06 inches Hg (1018.0 mb)
Winds: from the S (170 degrees) at 15 MPH (13 knots; 6.7 m/s)
Visibility: 6 or more miles (10+ km)
Ceiling: 2600 feet AGL
Clouds: scattered clouds at 2100 feet AGL
broken clouds at 2600 feet AGL
overcast cloud deck at 3300 feet AGL
Weather: -SHRA  (light rain showers)

METAR text: YBCS 211100Z AUTO 16014KT 9999 -SHRA SCT021 BKN026 BKN033 22/20 Q1018 INTER 1100/1400 4000 SHRA BKN018
Conditions at: YBCS (CAIRNS AIRPORT , AU) observed 1100 UTC 21 May 2019
Temperature: 22.0°C (72°F)
Dewpoint: 20.0°C (68°F) [RH = 88%]
Pressure (altimeter): 30.06 inches Hg (1018.0 mb)
Winds: from the SSE (160 degrees) at 16 MPH (14 knots; 7.2 m/s)
Visibility: 6 or more miles (10+ km)
Ceiling: 2600 feet AGL
Clouds: scattered clouds at 2100 feet AGL
broken clouds at 2600 feet AGL
broken clouds at 3300 feet AGL
Weather: -SHRA  (light rain showers)

METAR text: YBCS 211041Z AUTO 16012KT 5000 -SHRA SCT015 SCT026 BKN030 22/20 Q1018 INTER 1041/1341 4000 SHRA BKN018
Conditions at: YBCS (CAIRNS AIRPORT , AU) observed 1041 UTC 21 May 2019
Temperature: 22.0°C (72°F)
Dewpoint: 20.0°C (68°F) [RH = 88%]
Pressure (altimeter): 30.06 inches Hg (1018.0 mb)
Winds: from the SSE (160 degrees) at 14 MPH (12 knots; 6.2 m/s)
Visibility: 3 miles ( 5 km)
Ceiling: 3000 feet AGL
Clouds: scattered clouds at 1500 feet AGL
scattered clouds at 2600 feet AGL
broken clouds at 3000 feet AGL
Weather: -SHRA  (light rain showers)

METAR text: YBCS 211030Z AUTO 16012KT 9999 -SHRA SCT025 BKN029 BKN034 22/20 Q1018 RMK RF00.0/000.0 INTER 1030/1330 4000 SHRA BKN018
Conditions at: YBCS (CAIRNS AIRPORT , AU) observed 1030 UTC 21 May 2019
Temperature: 22.0°C (72°F)
Dewpoint: 20.0°C (68°F) [RH = 88%]
Pressure (altimeter): 30.06 inches Hg (1018.0 mb)
Winds: from the SSE (160 degrees) at 14 MPH (12 knots; 6.2 m/s)
Visibility: 6 or more miles (10+ km)
Ceiling: 2900 feet AGL
Clouds: scattered clouds at 2500 feet AGL
broken clouds at 2900 feet AGL
broken clouds at 3400 feet AGL
Weather: -SHRA  (light rain showers)

Forecast for: YBCS (CAIRNS AIRPORT , AU)
Text: TAF YBCS 211035Z 2112/2212 15012KT 9999 -SHRA SCT022 BKN035 INTER 2112/2124 4000 SHRA BKN018
Forecast period: 1200 UTC 21 May 2019 to 1200 UTC 22 May 2019
Forecast type: FROM: standard forecast or significant change
Winds: from the SSE (150 degrees) at 14 MPH (12 knots; 6.2 m/s)
Visibility: 6 or more miles 10+ km)
Ceiling: 3500 feet AGL
Clouds: scattered clouds at 2200 feet AGL
broken clouds at 3500 feet AGL
Weather: -SHRA  (light rain showers)
Text:
Forecast period: 1200 UTC 21 May 2019 to 0000 UTC 22 May 2019
Forecast type: TEMPORARY: The following changes expected for less than half the time period
Visibility: 2.49 miles (4.01 km)
Ceiling: 1800 feet AGL
Clouds: broken clouds at 1800 feet AGL
Weather: SHRA  (rain showers)